createdAt,value
2018-12-14T00:00:10.807Z,5.47
2018-12-14T00:02:37.487Z,4.40
2018-12-14T00:05:04.373Z,5.60
2018-12-14T00:07:31.055Z,6.47
2018-12-14T00:09:57.760Z,5.40
2018-12-14T00:12:24.537Z,6.10
2018-12-14T00:14:51.464Z,6.17
2018-12-14T00:17:18.254Z,5.80
2018-12-14T00:19:45.136Z,6.60
2018-12-14T00:22:11.917Z,5.23
2018-12-14T00:24:38.625Z,6.10
2018-12-14T00:27:05.377Z,6.00
2018-12-14T00:29:32.079Z,7.00
2018-12-14T00:31:58.767Z,6.23
2018-12-14T00:34:25.552Z,6.50
2018-12-14T00:36:52.235Z,5.50
2018-12-14T00:39:19.039Z,6.37
2018-12-14T00:41:51.756Z,5.80
2018-12-14T00:44:14.852Z,5.30
2018-12-14T00:46:44.390Z,5.53
2018-12-14T00:49:11.160Z,6.53
2018-12-14T00:51:37.966Z,6.43
2018-12-14T00:54:04.680Z,6.03
2018-12-14T00:56:31.356Z,4.73
2018-12-14T00:58:58.070Z,5.57
2018-12-14T01:01:24.784Z,5.57
2018-12-14T01:03:51.618Z,5.47
2018-12-14T01:06:18.349Z,5.43
2018-12-14T01:08:45.180Z,6.30
2018-12-14T01:11:11.855Z,5.83
2018-12-14T01:13:38.567Z,5.50
2018-12-14T01:16:05.256Z,5.83
2018-12-14T01:18:31.977Z,5.43
2018-12-14T01:20:58.660Z,5.73
2018-12-14T01:23:25.372Z,5.60
2018-12-14T01:25:52.150Z,4.97
2018-12-14T01:28:18.892Z,5.27
2018-12-14T01:30:45.863Z,6.80
2018-12-14T01:33:12.539Z,5.30
2018-12-14T01:35:39.249Z,6.17
2018-12-14T01:38:05.999Z,6.40
2018-12-14T01:40:32.755Z,4.93
2018-12-14T01:42:59.430Z,6.70
2018-12-14T01:45:26.187Z,5.37
2018-12-14T01:47:52.935Z,6.93
2018-12-14T01:50:19.748Z,5.97
2018-12-14T01:52:46.667Z,6.77
2018-12-14T01:55:13.379Z,5.47
2018-12-14T01:57:40.128Z,5.50
2018-12-14T02:00:06.912Z,6.33
2018-12-14T02:02:33.583Z,6.20
2018-12-14T02:05:00.301Z,5.70
2018-12-14T02:07:27.057Z,6.17
2018-12-14T02:09:53.884Z,5.60
2018-12-14T02:12:20.683Z,5.50
2018-12-14T02:14:47.487Z,5.80
2018-12-14T02:17:14.161Z,6.13
2018-12-14T02:19:40.865Z,5.83
2018-12-14T02:22:07.548Z,8.33
2018-12-14T02:24:34.258Z,5.93
2018-12-14T02:27:00.948Z,6.40
2018-12-14T02:29:27.656Z,4.87
2018-12-14T02:31:54.330Z,4.60
2018-12-14T02:34:21.088Z,5.83
2018-12-14T02:36:47.966Z,7.47
2018-12-14T02:39:14.674Z,7.60
2018-12-14T02:41:41.365Z,6.08
2018-12-14T02:44:08.082Z,6.20
2018-12-14T02:46:34.767Z,6.47
2018-12-14T02:49:01.476Z,6.00
2018-12-14T02:51:28.177Z,5.87
2018-12-14T02:53:54.884Z,5.80
2018-12-14T02:56:21.606Z,5.73
2018-12-14T02:58:48.355Z,6.17
2018-12-14T03:01:15.064Z,6.03
2018-12-14T03:03:41.747Z,6.00
2018-12-14T03:06:08.461Z,6.10
2018-12-14T03:08:35.145Z,6.20
2018-12-14T03:11:01.871Z,6.20
2018-12-14T03:13:28.557Z,5.63
2018-12-14T03:15:55.278Z,5.57
2018-12-14T03:18:22.019Z,5.80
2018-12-14T03:20:48.896Z,6.57
2018-12-14T03:23:15.592Z,6.37
2018-12-14T03:25:42.493Z,7.00
2018-12-14T03:28:09.175Z,6.13
2018-12-14T03:30:35.897Z,5.87
2018-12-14T03:33:02.586Z,5.50
2018-12-14T03:35:29.307Z,6.03
2018-12-14T03:37:55.995Z,6.00
2018-12-14T03:40:22.729Z,6.30
2018-12-14T03:42:49.411Z,6.13
2018-12-14T03:45:16.146Z,7.40
2018-12-14T03:47:42.841Z,7.20
2018-12-14T03:50:09.544Z,5.47
2018-12-14T03:52:36.223Z,7.10
2018-12-14T03:55:03.505Z,6.65
2018-12-14T03:57:30.688Z,5.77
2018-12-14T03:59:57.403Z,5.80
2018-12-14T04:02:24.136Z,6.70
2018-12-14T04:04:50.893Z,6.37
2018-12-14T04:07:17.726Z,6.27
2018-12-14T04:09:44.494Z,6.03
2018-12-14T04:12:11.227Z,6.40
2018-12-14T04:14:37.942Z,5.70
2018-12-14T04:17:04.630Z,6.20
2018-12-14T04:19:31.847Z,6.90
2018-12-14T04:21:59.247Z,6.03
2018-12-14T04:24:26.139Z,6.07
2018-12-14T04:26:52.854Z,6.90
2018-12-14T04:29:19.632Z,6.70
2018-12-14T04:31:46.343Z,5.80
2018-12-14T04:34:13.024Z,6.10
2018-12-14T04:36:39.744Z,7.63
2018-12-14T04:39:06.429Z,5.90
2018-12-14T04:41:33.138Z,6.60
2018-12-14T04:43:59.883Z,6.37
2018-12-14T04:46:26.863Z,6.20
2018-12-14T04:48:53.572Z,6.53
2018-12-14T04:51:20.387Z,5.57
2018-12-14T04:53:47.098Z,6.17
2018-12-14T04:56:13.804Z,6.40
2018-12-14T04:58:40.493Z,6.23
2018-12-14T05:01:07.209Z,6.33
2018-12-14T05:03:33.897Z,6.47
2018-12-14T05:06:00.620Z,6.93
2018-12-14T05:08:27.305Z,6.70
2018-12-14T05:10:54.018Z,5.70
2018-12-14T05:13:20.722Z,5.50
2018-12-14T05:15:47.431Z,6.47
2018-12-14T05:18:14.117Z,7.07
2018-12-14T05:20:40.831Z,6.30
2018-12-14T05:23:07.515Z,6.73
2018-12-14T05:25:34.219Z,5.20
2018-12-14T05:28:00.907Z,6.50
2018-12-14T05:30:27.716Z,6.10
2018-12-14T05:32:54.397Z,6.93
2018-12-14T05:35:21.115Z,6.10
2018-12-14T05:37:47.894Z,8.33
2018-12-14T05:40:14.608Z,7.00
2018-12-14T05:42:41.293Z,6.97
2018-12-14T05:45:08.059Z,7.07
2018-12-14T05:47:34.784Z,6.67
2018-12-14T05:50:01.471Z,6.97
2018-12-14T05:52:28.179Z,7.00
2018-12-14T05:54:54.864Z,6.37
2018-12-14T05:57:21.668Z,8.33
2018-12-14T05:59:48.360Z,7.30
2018-12-14T06:02:15.075Z,7.60
2018-12-14T06:04:41.763Z,8.10
2018-12-14T06:07:08.471Z,9.00
2018-12-14T06:09:35.156Z,7.83
2018-12-14T06:12:02.440Z,8.17
2018-12-14T06:14:29.120Z,8.53
2018-12-14T06:16:55.866Z,7.10
2018-12-14T06:19:22.592Z,7.33
2018-12-14T06:21:49.374Z,7.63
2018-12-14T06:24:16.127Z,7.27
2018-12-14T06:26:42.836Z,7.00
2018-12-14T06:29:09.514Z,7.13
2018-12-14T06:31:36.223Z,7.70
2018-12-14T06:34:02.912Z,7.70
2018-12-14T06:36:29.623Z,7.50
2018-12-14T06:38:56.350Z,7.87
2018-12-14T06:41:23.125Z,7.50
2018-12-14T06:43:49.934Z,7.43
2018-12-14T06:46:16.707Z,8.20
2018-12-14T06:48:44.043Z,7.33
2018-12-14T06:51:11.032Z,7.23
2018-12-14T06:53:37.830Z,7.60
2018-12-14T06:56:04.537Z,7.50
2018-12-14T06:58:31.243Z,7.57
2018-12-14T07:00:58.005Z,8.00
2018-12-14T07:03:24.785Z,6.87
2018-12-14T07:05:51.576Z,8.50
2018-12-14T07:08:18.260Z,7.53
2018-12-14T07:10:44.971Z,7.53
2018-12-14T07:13:11.687Z,6.67
2018-12-14T07:15:38.381Z,6.40
2018-12-14T07:18:05.101Z,7.50
2018-12-14T07:20:31.808Z,6.73
2018-12-14T07:22:58.594Z,6.60
2018-12-14T07:25:25.396Z,6.70
2018-12-14T07:27:52.321Z,8.13
2018-12-14T07:30:19.072Z,8.00
2018-12-14T07:32:45.788Z,7.00
2018-12-14T07:35:12.467Z,6.40
2018-12-14T07:37:39.180Z,6.60
2018-12-14T07:40:06.346Z,7.03
2018-12-14T07:42:33.052Z,6.30
2018-12-14T07:44:59.774Z,6.80
2018-12-14T07:47:26.668Z,7.00
2018-12-14T07:49:53.484Z,8.20
2018-12-14T07:52:20.188Z,7.67
2018-12-14T07:54:46.885Z,6.70
2018-12-14T07:57:13.602Z,7.67
2018-12-14T07:59:40.281Z,6.67
2018-12-14T08:02:06.989Z,6.50
2018-12-14T08:04:33.848Z,7.23
2018-12-14T08:07:00.730Z,7.30
2018-12-14T08:09:27.590Z,6.57
2018-12-14T08:11:54.414Z,6.63
2018-12-14T08:14:21.179Z,7.37
2018-12-14T08:16:47.948Z,7.03
2018-12-14T08:19:14.628Z,7.73
2018-12-14T08:21:41.342Z,6.97
2018-12-14T08:24:08.027Z,6.50
2018-12-14T08:26:34.731Z,7.08
2018-12-14T08:29:01.416Z,7.70
2018-12-14T08:31:28.299Z,6.87
2018-12-14T08:33:54.987Z,5.17
2018-12-14T08:36:21.932Z,7.00
2018-12-14T08:38:48.707Z,8.67
2018-12-14T08:41:15.389Z,7.13
2018-12-14T08:43:42.109Z,6.77
2018-12-14T08:46:08.866Z,7.10
2018-12-14T08:48:35.575Z,6.27
2018-12-14T08:51:02.314Z,6.90
2018-12-14T08:53:29.150Z,6.57
2018-12-14T08:55:56.016Z,6.70
2018-12-14T08:58:22.888Z,6.27
2018-12-14T09:00:49.584Z,7.10
2018-12-14T09:03:16.296Z,6.90
2018-12-14T09:05:42.983Z,6.90
2018-12-14T09:08:09.692Z,7.80
2018-12-14T09:10:36.375Z,7.73
2018-12-14T09:13:03.124Z,7.63
2018-12-14T09:15:29.835Z,8.23
2018-12-14T09:17:56.629Z,8.77
2018-12-14T09:20:23.452Z,6.43
2018-12-14T09:22:50.248Z,8.33
2018-12-14T09:25:17.037Z,9.33
2018-12-14T09:27:43.749Z,7.63
2018-12-14T09:30:10.431Z,7.77
2018-12-14T09:32:37.144Z,8.00
2018-12-14T09:35:03.854Z,6.37
2018-12-14T09:37:30.572Z,7.80
2018-12-14T09:39:57.356Z,7.80
2018-12-14T09:42:24.331Z,8.33
2018-12-14T09:44:51.016Z,8.17
2018-12-14T09:47:17.735Z,7.43
2018-12-14T09:49:44.441Z,7.00
2018-12-14T09:52:11.149Z,7.47
2018-12-14T09:54:37.814Z,8.80
2018-12-14T09:57:04.603Z,7.37
2018-12-14T09:59:31.282Z,7.07
2018-12-14T10:01:57.999Z,7.53
2018-12-14T10:04:24.816Z,7.17
2018-12-14T10:06:51.528Z,7.07
2018-12-14T10:09:18.278Z,7.50
2018-12-14T10:11:44.961Z,7.10
2018-12-14T10:14:11.676Z,6.90
2018-12-14T10:16:38.360Z,8.47
2018-12-14T10:19:05.148Z,6.80
2018-12-14T10:21:31.832Z,7.20
2018-12-14T10:23:58.547Z,7.00
2018-12-14T10:26:25.268Z,6.67
2018-12-14T10:28:52.047Z,8.73
2018-12-14T10:31:18.758Z,7.27
2018-12-14T10:33:45.469Z,8.10
2018-12-14T10:36:12.152Z,7.00
2018-12-14T10:38:38.863Z,6.63
2018-12-14T10:41:05.560Z,6.57
2018-12-14T10:43:32.279Z,6.83
2018-12-14T10:45:59.037Z,6.53
2018-12-14T10:48:25.891Z,6.70
2018-12-14T10:50:52.574Z,6.27
2018-12-14T10:53:19.281Z,6.60
2018-12-14T10:55:45.969Z,6.73
2018-12-14T10:58:12.694Z,6.77
2018-12-14T11:00:45.116Z,7.63
2018-12-14T11:03:11.834Z,7.07
2018-12-14T11:05:38.521Z,5.90
2018-12-14T11:08:05.235Z,7.27
2018-12-14T11:10:31.953Z,6.57
2018-12-14T11:12:58.690Z,6.13
2018-12-14T11:15:25.495Z,6.90
2018-12-14T11:17:52.202Z,4.90
2018-12-14T11:20:18.887Z,6.43
2018-12-14T11:22:45.596Z,7.30
2018-12-14T11:25:12.280Z,6.50
2018-12-14T11:27:39.001Z,6.40
2018-12-14T11:30:06.652Z,7.53
2018-12-14T11:32:33.375Z,6.00
2018-12-14T11:35:00.062Z,6.67
2018-12-14T11:37:26.981Z,5.83
2018-12-14T11:39:53.692Z,6.40
2018-12-14T11:42:20.379Z,7.60
2018-12-14T11:44:47.088Z,6.97
2018-12-14T11:47:18.176Z,7.13
2018-12-14T11:49:42.503Z,7.50
2018-12-14T11:52:09.183Z,7.07
2018-12-14T11:54:35.993Z,7.07
2018-12-14T11:57:02.684Z,5.90
2018-12-14T11:59:29.388Z,6.90
2018-12-14T12:01:56.223Z,7.13
2018-12-14T12:04:22.941Z,6.57
2018-12-14T12:06:49.627Z,6.30
2018-12-14T12:09:16.343Z,6.90
2018-12-14T12:11:43.037Z,6.60
2018-12-14T12:14:09.750Z,6.77
2018-12-14T12:16:36.442Z,7.07
2018-12-14T12:19:03.199Z,6.03
2018-12-14T12:21:30.083Z,6.57
2018-12-14T12:23:57.002Z,7.07
2018-12-14T12:26:23.731Z,6.70
2018-12-14T12:28:50.444Z,5.73
2018-12-14T12:31:17.172Z,7.00
2018-12-14T12:33:43.887Z,5.97
2018-12-14T12:36:10.571Z,7.83
2018-12-14T12:38:38.198Z,6.10
2018-12-14T12:41:05.218Z,6.90
2018-12-14T12:43:32.092Z,6.97
2018-12-14T12:45:58.846Z,6.47
2018-12-14T12:48:25.835Z,5.30
2018-12-14T12:50:52.524Z,7.30
2018-12-14T12:53:19.276Z,5.67
2018-12-14T12:55:45.961Z,6.27
2018-12-14T12:58:12.671Z,5.70
2018-12-14T13:00:39.352Z,5.17
2018-12-14T13:03:06.128Z,6.10
2018-12-14T13:05:35.041Z,6.50
2018-12-14T13:08:01.628Z,5.40
2018-12-14T13:10:28.512Z,6.20
2018-12-14T13:12:55.209Z,5.40
2018-12-14T13:15:21.954Z,6.50
2018-12-14T13:17:48.633Z,4.83
2018-12-14T13:20:15.349Z,6.00
2018-12-14T13:22:42.039Z,5.47
2018-12-14T13:25:08.756Z,5.57
2018-12-14T13:27:35.440Z,6.40
2018-12-14T13:30:02.153Z,5.73
2018-12-14T13:32:28.920Z,5.47
2018-12-14T13:34:55.648Z,6.40
2018-12-14T13:37:22.399Z,5.73
2018-12-14T13:39:49.122Z,5.20
2018-12-14T13:42:15.809Z,5.63
2018-12-14T13:44:46.497Z,6.03
2018-12-14T13:47:11.396Z,5.13
2018-12-14T13:49:38.439Z,5.80
2018-12-14T13:52:05.313Z,5.50
2018-12-14T13:54:32.020Z,5.50
2018-12-14T13:56:58.739Z,5.73
2018-12-14T13:59:25.448Z,5.23
2018-12-14T14:01:52.136Z,4.97
2018-12-14T14:04:18.847Z,5.33
2018-12-14T14:06:45.528Z,5.37
2018-12-14T14:09:12.300Z,5.67
2018-12-14T14:11:38.974Z,5.33
2018-12-14T14:14:05.679Z,6.17
2018-12-14T14:16:32.347Z,4.67
2018-12-14T14:18:59.120Z,5.20
2018-12-14T14:21:25.797Z,5.83
2018-12-14T14:23:52.501Z,5.27
2018-12-14T14:26:19.190Z,5.00
2018-12-14T14:28:45.881Z,4.30
2018-12-14T14:31:12.588Z,5.10
2018-12-14T14:33:39.269Z,5.53
2018-12-14T14:36:05.984Z,5.70
2018-12-14T14:38:32.664Z,5.90
2018-12-14T14:40:59.480Z,5.97
2018-12-14T14:43:26.165Z,4.90
2018-12-14T14:45:52.881Z,6.00
2018-12-14T14:48:19.566Z,5.90
2018-12-14T14:50:46.274Z,5.73
2018-12-14T14:53:12.953Z,5.63
2018-12-14T14:55:39.666Z,5.03
2018-12-14T14:58:06.358Z,5.97
2018-12-14T15:00:33.422Z,5.53
2018-12-14T15:03:00.707Z,5.40
2018-12-14T15:05:28.347Z,5.00
2018-12-14T15:07:55.032Z,4.57
2018-12-14T15:10:21.745Z,5.63
2018-12-14T15:12:48.430Z,5.70
2018-12-14T15:15:15.179Z,14.93
2018-12-14T15:17:41.872Z,16.23
2018-12-14T15:20:08.741Z,15.30
2018-12-14T15:22:35.445Z,13.93
2018-12-14T15:25:02.250Z,10.83
2018-12-14T15:27:29.030Z,9.37
2018-12-14T15:29:55.755Z,9.00
2018-12-14T15:32:22.722Z,8.33
2018-12-14T15:34:49.459Z,29.70
2018-12-14T15:37:16.151Z,15.07
2018-12-14T15:39:42.877Z,14.80
2018-12-14T15:42:09.593Z,12.20
2018-12-14T15:44:36.320Z,11.30
2018-12-14T15:47:03.074Z,9.40
2018-12-14T15:49:30.021Z,9.43
2018-12-14T15:51:56.830Z,8.17
2018-12-14T15:54:23.548Z,8.60
2018-12-14T15:56:50.234Z,8.60
2018-12-14T15:59:16.985Z,8.00
2018-12-14T16:01:43.703Z,6.77
2018-12-14T16:04:10.385Z,6.50
2018-12-14T16:06:37.098Z,6.13
2018-12-14T16:09:04.633Z,7.00
2018-12-14T16:11:31.521Z,6.73
2018-12-14T16:13:58.305Z,5.87
2018-12-14T16:16:25.073Z,5.80
2018-12-14T16:18:51.791Z,6.30
2018-12-14T16:21:18.518Z,4.70
2018-12-14T16:23:45.233Z,5.77
2018-12-14T16:26:12.130Z,6.13
2018-12-14T16:28:38.847Z,5.70
2018-12-14T16:31:06.002Z,5.17
2018-12-14T16:33:32.920Z,5.43
2018-12-14T16:35:59.879Z,6.23
2018-12-14T16:38:26.670Z,4.77
2018-12-14T16:40:53.441Z,4.73
2018-12-14T16:43:20.128Z,6.10
2018-12-14T16:45:46.850Z,5.73
2018-12-14T16:48:13.606Z,4.63
2018-12-14T16:50:40.348Z,4.60
2018-12-14T16:53:07.029Z,5.20
2018-12-14T16:55:33.839Z,5.90
2018-12-14T16:58:00.698Z,5.07
2018-12-14T17:00:27.419Z,5.70
2018-12-14T17:02:54.112Z,4.63
2018-12-14T17:05:20.896Z,5.50
2018-12-14T17:07:47.576Z,5.10
2018-12-14T17:10:14.279Z,5.37
2018-12-14T17:12:41.137Z,5.23
2018-12-14T17:15:07.843Z,6.27
2018-12-14T17:17:34.520Z,5.10
2018-12-14T17:20:01.439Z,5.00
2018-12-14T17:22:28.123Z,5.97
2018-12-14T17:24:54.846Z,4.90
2018-12-14T17:27:21.565Z,4.63
2018-12-14T17:29:48.322Z,5.27
2018-12-14T17:32:15.039Z,5.80
2018-12-14T17:34:41.729Z,4.70
2018-12-14T17:37:08.452Z,5.13
2018-12-14T17:39:35.173Z,5.43
2018-12-14T17:42:01.984Z,4.63
2018-12-14T17:44:28.699Z,4.93
2018-12-14T17:46:55.488Z,5.40
2018-12-14T17:49:22.169Z,5.47
2018-12-14T17:51:49.060Z,6.73
2018-12-14T17:54:15.731Z,6.53
2018-12-14T17:56:42.435Z,5.87
2018-12-14T17:59:09.121Z,4.90
2018-12-14T18:01:35.837Z,4.80
2018-12-14T18:04:02.696Z,5.63
2018-12-14T18:06:29.410Z,5.50
2018-12-14T18:08:56.089Z,5.50
2018-12-14T18:11:22.798Z,5.63
2018-12-14T18:13:49.473Z,4.93
2018-12-14T18:16:16.682Z,5.13
2018-12-14T18:18:43.468Z,4.93
2018-12-14T18:21:10.180Z,4.83
2018-12-14T18:23:36.862Z,4.70
2018-12-14T18:26:03.632Z,4.90
2018-12-14T18:28:30.366Z,5.67
2018-12-14T18:30:57.130Z,4.80
2018-12-14T18:33:23.819Z,4.90
2018-12-14T18:35:50.523Z,4.93
2018-12-14T18:38:17.199Z,4.40
2018-12-14T18:40:43.908Z,4.80
2018-12-14T18:43:10.597Z,5.87
2018-12-14T18:45:37.326Z,5.60
2018-12-14T18:48:04.220Z,4.77
2018-12-14T18:50:31.127Z,5.00
2018-12-14T18:52:57.852Z,5.00
2018-12-14T18:55:24.604Z,5.00
2018-12-14T18:57:51.315Z,4.80
2018-12-14T19:00:17.990Z,5.40
2018-12-14T19:02:44.705Z,5.03
2018-12-14T19:05:11.466Z,4.30
2018-12-14T19:07:38.310Z,4.63
2018-12-14T19:10:04.992Z,4.07
2018-12-14T19:12:32.207Z,4.77
2018-12-14T19:14:58.921Z,4.33
2018-12-14T19:17:25.630Z,4.27
2018-12-14T19:19:52.346Z,4.73
2018-12-14T19:22:19.069Z,4.90
2018-12-14T19:24:45.768Z,4.97
2018-12-14T19:27:12.824Z,4.70
2018-12-14T19:29:39.577Z,5.20
2018-12-14T19:32:06.400Z,5.17
2018-12-14T19:34:33.204Z,5.37
2018-12-14T19:36:59.919Z,4.03
2018-12-14T19:39:26.664Z,4.50
2018-12-14T19:41:53.452Z,4.30
2018-12-14T19:44:20.144Z,4.90
2018-12-14T19:46:46.858Z,4.00
2018-12-14T19:49:13.831Z,4.47
2018-12-14T19:51:40.574Z,4.60
2018-12-14T19:54:07.253Z,4.70
2018-12-14T19:56:35.172Z,4.13
2018-12-14T19:59:03.062Z,4.70
2018-12-14T20:01:29.817Z,4.47
2018-12-14T20:03:56.495Z,4.17
2018-12-14T20:06:23.209Z,5.00
2018-12-14T20:08:49.897Z,5.23
2018-12-14T20:11:16.612Z,4.70
2018-12-14T20:13:43.353Z,4.40
2018-12-14T20:16:12.879Z,4.30
2018-12-14T20:18:38.784Z,4.57
2018-12-14T20:21:05.574Z,3.60
2018-12-14T20:23:32.290Z,6.00
2018-12-14T20:25:59.056Z,4.50
2018-12-14T20:28:25.729Z,4.90
2018-12-14T20:30:52.417Z,5.20
2018-12-14T20:33:19.124Z,4.40
2018-12-14T20:35:45.816Z,4.60
2018-12-14T20:38:12.528Z,5.27
2018-12-14T20:40:40.184Z,4.90
2018-12-14T20:43:06.958Z,4.17
2018-12-14T20:45:33.854Z,5.07
2018-12-14T20:48:00.564Z,4.60
2018-12-14T20:50:27.252Z,4.10
2018-12-14T20:52:54.002Z,5.20
2018-12-14T20:55:20.685Z,5.60
2018-12-14T20:57:47.386Z,4.67
2018-12-14T21:00:14.180Z,4.60
2018-12-14T21:02:40.915Z,5.10
2018-12-14T21:05:07.690Z,5.33
2018-12-14T21:07:34.549Z,4.40
2018-12-14T21:10:01.227Z,5.23
2018-12-14T21:12:27.952Z,4.80
2018-12-14T21:14:54.630Z,5.37
2018-12-14T21:17:21.338Z,5.30
2018-12-14T21:19:48.025Z,5.33
2018-12-14T21:22:15.327Z,5.50
2018-12-14T21:24:42.264Z,5.27
2018-12-14T21:27:08.971Z,5.97
2018-12-14T21:29:35.704Z,4.30
2018-12-14T21:32:02.516Z,4.73
2018-12-14T21:34:29.205Z,4.43
2018-12-14T21:36:55.881Z,4.70
2018-12-14T21:39:22.585Z,4.80
2018-12-14T21:41:49.267Z,5.20
2018-12-14T21:44:15.998Z,4.90
2018-12-14T21:46:42.682Z,4.10
2018-12-14T21:49:09.392Z,4.23
2018-12-14T21:51:36.196Z,4.40
2018-12-14T21:54:02.908Z,4.17
2018-12-14T21:56:29.586Z,4.67
2018-12-14T21:58:56.301Z,4.53
2018-12-14T22:01:22.982Z,5.53
2018-12-14T22:03:49.708Z,4.50
2018-12-14T22:06:16.395Z,4.13
2018-12-14T22:08:43.100Z,4.13
2018-12-14T22:11:09.783Z,4.10
2018-12-14T22:13:36.545Z,4.20
2018-12-14T22:16:03.280Z,4.80
2018-12-14T22:18:29.989Z,4.30
2018-12-14T22:20:56.668Z,4.53
2018-12-14T22:23:23.375Z,4.90
2018-12-14T22:25:50.053Z,3.90
2018-12-14T22:28:16.763Z,4.60
2018-12-14T22:30:43.449Z,5.87
2018-12-14T22:33:10.157Z,4.10
2018-12-14T22:35:36.934Z,3.87
2018-12-14T22:38:03.650Z,3.57
2018-12-14T22:40:30.328Z,4.03
2018-12-14T22:42:57.034Z,5.10
2018-12-14T22:45:23.708Z,4.43
2018-12-14T22:47:50.413Z,4.20
2018-12-14T22:50:17.120Z,3.70
2018-12-14T22:52:43.803Z,4.83
2018-12-14T22:55:10.520Z,4.97
2018-12-14T22:57:37.268Z,4.47
2018-12-14T23:00:05.583Z,3.80
2018-12-14T23:02:32.283Z,5.40
2018-12-14T23:04:58.988Z,4.90
2018-12-14T23:07:25.671Z,4.00
2018-12-14T23:09:52.383Z,4.10
2018-12-14T23:12:19.060Z,3.63
2018-12-14T23:14:45.894Z,4.47
2018-12-14T23:17:12.623Z,4.33
2018-12-14T23:19:39.374Z,4.83
2018-12-14T23:22:06.190Z,3.60
2018-12-14T23:24:32.944Z,4.40
2018-12-14T23:26:59.622Z,4.70
2018-12-14T23:29:26.334Z,3.60
2018-12-14T23:31:53.020Z,3.80
2018-12-14T23:34:19.724Z,3.60
2018-12-14T23:36:46.871Z,3.83
2018-12-14T23:39:13.575Z,4.23
2018-12-14T23:41:40.265Z,4.53
2018-12-14T23:44:07.076Z,4.00
2018-12-14T23:46:33.756Z,3.73
2018-12-14T23:49:00.475Z,4.40
2018-12-14T23:51:27.152Z,4.07
2018-12-14T23:53:53.871Z,3.90
2018-12-14T23:56:20.549Z,3.60
2018-12-14T23:58:47.278Z,3.40
